createdAt,value
2022-09-05T00:00:06.042Z,2.92
2022-09-05T00:02:52.524Z,2.10
2022-09-05T00:05:22.074Z,2.28
2022-09-05T00:08:00.530Z,2.92
2022-09-05T00:10:27.141Z,2.70
2022-09-05T00:13:07.564Z,1.70
2022-09-05T00:15:53.273Z,2.55
2022-09-05T00:23:52.930Z,1.90
2022-09-05T00:24:20.721Z,3.03
2022-09-05T00:27:21.187Z,2.17
2022-09-05T00:31:06.158Z,2.47
2022-09-05T00:33:27.225Z,2.03
2022-09-05T00:36:05.505Z,2.28
2022-09-05T00:38:36.899Z,2.55
2022-09-05T00:41:08.223Z,2.13
2022-09-05T00:43:36.986Z,3.15
2022-09-05T00:46:07.574Z,2.55
2022-09-05T00:48:42.829Z,2.65
2022-09-05T00:51:09.247Z,2.47
2022-09-05T00:53:49.546Z,2.22
2022-09-05T00:56:15.839Z,2.95
2022-09-05T00:58:51.977Z,2.53
2022-09-05T01:01:30.670Z,2.63
2022-09-05T01:03:57.046Z,2.55
2022-09-05T01:06:29.548Z,2.78
2022-09-05T01:08:55.871Z,2.95
2022-09-05T01:11:38.311Z,3.03
2022-09-05T01:14:27.772Z,2.80
2022-09-05T01:17:13.094Z,2.83
2022-09-05T01:19:56.085Z,3.50
2022-09-05T01:22:37.020Z,2.03
2022-09-05T01:25:11.980Z,2.63
2022-09-05T01:28:27.699Z,2.85
2022-09-05T01:30:39.947Z,2.53
2022-09-05T01:33:23.036Z,2.70
2022-09-05T01:35:59.184Z,2.53
2022-09-05T01:38:36.900Z,2.60
2022-09-05T01:41:18.610Z,2.60
2022-09-05T01:43:52.029Z,2.70
2022-09-05T01:46:30.459Z,3.42
2022-09-05T01:49:15.694Z,2.58
2022-09-05T01:52:01.970Z,2.35
2022-09-05T01:54:45.984Z,2.25
2022-09-05T01:57:41.891Z,2.85
2022-09-05T02:00:08.331Z,3.65
2022-09-05T02:02:55.159Z,2.95
2022-09-05T02:05:48.296Z,3.15
2022-09-05T02:08:15.592Z,2.63
2022-09-05T02:10:44.636Z,2.50
2022-09-05T02:13:29.736Z,2.73
2022-09-05T02:16:00.230Z,3.08
2022-09-05T02:18:46.967Z,2.60
2022-09-05T02:21:18.371Z,2.50
2022-09-05T02:23:48.843Z,2.80
2022-09-05T02:26:18.091Z,2.40
2022-09-05T02:28:44.346Z,3.25
2022-09-05T02:31:29.858Z,2.50
2022-09-05T02:34:14.988Z,3.17
2022-09-05T02:37:00.159Z,3.10
2022-09-05T02:45:08.384Z,3.08
2022-09-05T02:45:18.444Z,3.20
2022-09-05T02:45:28.274Z,3.20
2022-09-05T02:48:15.378Z,3.28
2022-09-05T02:57:23.496Z,3.60
2022-09-05T02:57:34.205Z,3.60
2022-09-05T02:57:37.622Z,3.42
2022-09-05T02:59:39.970Z,3.53
2022-09-05T03:02:26.407Z,3.10
2022-09-05T03:05:08.343Z,3.88
2022-09-05T03:07:34.610Z,4.05
2022-09-05T03:10:19.819Z,3.80
2022-09-05T03:13:24.470Z,4.50
2022-09-05T03:16:04.471Z,4.55
2022-09-05T03:19:01.585Z,3.67
2022-09-05T03:21:47.930Z,3.50
2022-09-05T03:24:32.698Z,4.35
2022-09-05T03:27:29.156Z,4.68
2022-09-05T03:29:59.027Z,4.43
2022-09-05T03:32:48.879Z,3.97
2022-09-05T03:35:33.810Z,4.47
2022-09-05T03:38:30.685Z,3.90
2022-09-05T03:41:05.707Z,3.70
2022-09-05T03:43:50.488Z,4.20
2022-09-05T03:46:22.928Z,3.95
2022-09-05T03:48:56.301Z,4.05
2022-09-05T03:57:08.118Z,4.13
2022-09-05T03:57:27.547Z,4.72
2022-09-05T03:57:43.169Z,5.00
2022-09-05T04:00:09.880Z,4.32
2022-09-05T04:08:10.245Z,4.47
2022-09-05T04:08:10.952Z,5.47
2022-09-05T04:08:33.956Z,4.45
2022-09-05T04:11:09.179Z,5.00
2022-09-05T04:13:58.833Z,5.80
2022-09-05T04:16:30.396Z,4.30
2022-09-05T04:19:08.571Z,4.00
2022-09-05T04:21:36.439Z,5.43
2022-09-05T04:24:05.766Z,4.60
2022-09-05T04:26:38.202Z,4.10
2022-09-05T04:29:10.925Z,4.38
2022-09-05T04:31:42.828Z,4.07
2022-09-05T04:34:17.197Z,4.22
2022-09-05T04:36:43.948Z,3.78
2022-09-05T04:39:19.421Z,4.93
2022-09-05T04:41:54.901Z,4.72
2022-09-05T04:44:27.169Z,4.10
2022-09-05T04:47:15.693Z,4.20
2022-09-05T04:49:47.558Z,4.57
2022-09-05T04:52:31.651Z,4.28
2022-09-05T04:55:01.387Z,4.32
2022-09-05T04:57:37.344Z,4.97
2022-09-05T05:05:58.342Z,3.88
2022-09-05T05:06:16.459Z,5.13
2022-09-05T05:06:18.911Z,4.40
2022-09-05T05:08:39.665Z,4.93
2022-09-05T05:16:29.850Z,3.47
2022-09-05T05:17:55.225Z,4.25
2022-09-05T05:18:12.954Z,5.65
2022-09-05T05:19:40.763Z,5.68
2022-09-05T05:22:13.880Z,4.57
2022-09-05T05:24:47.755Z,5.53
2022-09-05T05:27:31.102Z,5.15
2022-09-05T05:30:01.796Z,4.18
2022-09-05T05:32:45.130Z,3.67
2022-09-05T05:35:12.902Z,5.07
2022-09-05T05:37:51.201Z,3.65
2022-09-05T05:42:46.419Z,4.78
2022-09-05T05:45:17.720Z,5.05
2022-09-05T05:47:45.699Z,5.57
2022-09-05T05:50:35.008Z,4.35
2022-09-05T05:53:32.030Z,5.65
2022-09-05T05:56:13.577Z,4.82
2022-09-05T05:59:24.482Z,4.20
2022-09-05T06:02:04.249Z,3.88
2022-09-05T06:04:30.580Z,5.30
2022-09-05T06:07:02.749Z,4.30
2022-09-05T06:14:48.154Z,5.03
2022-09-05T06:14:59.038Z,4.70
2022-09-05T06:15:33.926Z,4.28
2022-09-05T06:18:11.027Z,4.38
2022-09-05T06:22:11.280Z,4.63
2022-09-05T06:23:42.248Z,4.88
2022-09-05T06:26:08.840Z,5.07
2022-09-05T06:29:01.535Z,4.97
2022-09-05T06:31:46.452Z,5.60
2022-09-05T06:34:32.676Z,5.63
2022-09-05T06:37:16.677Z,4.70
2022-09-05T06:39:53.009Z,5.43
2022-09-05T06:42:43.787Z,3.80
2022-09-05T06:45:28.468Z,4.28
2022-09-05T06:47:58.594Z,3.58
2022-09-05T06:50:28.810Z,4.55
2022-09-05T06:52:55.139Z,4.50
2022-09-05T06:55:41.484Z,4.32
2022-09-05T06:58:10.603Z,4.53
2022-09-05T07:00:46.128Z,4.55
2022-09-05T07:03:15.499Z,3.65
2022-09-05T07:05:47.477Z,4.00
2022-09-05T07:08:34.936Z,4.38
2022-09-05T07:11:16.013Z,4.65
2022-09-05T07:13:52.915Z,3.45
2022-09-05T07:16:26.550Z,3.05
2022-09-05T07:19:25.420Z,4.03
2022-09-05T07:22:00.817Z,4.30
2022-09-05T07:24:53.730Z,3.10
2022-09-05T07:27:27.549Z,3.30
2022-09-05T07:30:01.761Z,3.75
2022-09-05T07:32:33.861Z,3.60
2022-09-05T07:35:02.650Z,3.97
2022-09-05T07:37:35.731Z,3.75
2022-09-05T07:40:25.419Z,4.88
2022-09-05T07:43:09.585Z,4.03
2022-09-05T07:45:38.395Z,7.60
2022-09-05T07:48:11.968Z,3.92
2022-09-05T07:54:06.023Z,3.45
2022-09-05T07:56:52.163Z,3.00
2022-09-05T07:57:02.366Z,3.00
2022-09-05T07:59:28.675Z,4.25
2022-09-05T08:01:55.268Z,3.77
2022-09-05T08:04:27.881Z,2.90
2022-09-05T08:07:46.945Z,2.72
2022-09-05T08:10:07.063Z,3.05
2022-09-05T08:13:22.619Z,2.85
2022-09-05T08:15:27.624Z,4.78
2022-09-05T08:18:32.776Z,3.78
2022-09-05T08:21:05.190Z,2.47
2022-09-05T08:23:31.508Z,2.65
2022-09-05T08:26:05.703Z,3.28
2022-09-05T08:28:41.430Z,4.68
2022-09-05T08:31:11.150Z,3.45
2022-09-05T08:36:14.343Z,4.72
2022-09-05T08:38:43.221Z,3.45
2022-09-05T08:41:15.675Z,2.28
2022-09-05T08:46:37.063Z,4.32
2022-09-05T08:46:50.217Z,2.13
2022-09-05T08:49:37.774Z,2.85
2022-09-05T08:52:10.937Z,2.20
2022-09-05T08:54:46.474Z,3.03
2022-09-05T08:57:12.830Z,2.33
2022-09-05T08:59:47.817Z,2.10
2022-09-05T09:02:47.284Z,3.17
2022-09-05T09:05:14.922Z,3.67
2022-09-05T09:07:52.477Z,2.33
2022-09-05T09:10:45.119Z,1.75
2022-09-05T09:13:37.901Z,1.92
2022-09-05T09:16:19.830Z,3.05
2022-09-05T09:18:48.944Z,2.63
2022-09-05T09:21:30.790Z,2.47
2022-09-05T09:24:16.686Z,1.85
2022-09-05T09:26:57.143Z,2.13
2022-09-05T09:29:23.990Z,2.20
2022-09-05T09:31:59.586Z,1.55
2022-09-05T09:34:25.864Z,2.17
2022-09-05T09:36:55.015Z,3.03
2022-09-05T09:39:38.013Z,1.33
2022-09-05T09:42:33.361Z,1.67
2022-09-05T09:45:26.147Z,2.47
2022-09-05T09:48:05.894Z,1.77
2022-09-05T09:50:32.182Z,1.65
2022-09-05T09:53:13.134Z,1.10
2022-09-05T09:55:40.815Z,1.48
2022-09-05T09:58:24.462Z,1.40
2022-09-05T10:01:09.886Z,0.77
2022-09-05T10:10:32.845Z,0.98
2022-09-05T10:10:51.895Z,0.90
2022-09-05T10:10:57.757Z,0.93
2022-09-05T10:13:07.995Z,1.13
2022-09-05T10:16:06.044Z,1.20
2022-09-05T10:18:54.411Z,1.07
2022-09-05T10:21:36.109Z,0.45
2022-09-05T10:24:02.397Z,0.77
2022-09-05T10:26:39.573Z,0.68
2022-09-05T10:29:37.408Z,0.57
2022-09-05T10:35:05.159Z,0.57
2022-09-05T10:35:21.278Z,1.00
2022-09-05T10:37:57.339Z,0.85
2022-09-05T10:40:25.604Z,1.02
2022-09-05T10:43:00.805Z,0.68
2022-09-05T10:45:33.466Z,0.95
2022-09-05T10:48:23.899Z,0.73
2022-09-05T10:51:00.579Z,0.70
2022-09-05T10:53:43.239Z,0.75
2022-09-05T10:56:14.267Z,0.55
2022-09-05T10:59:54.104Z,0.95
2022-09-05T11:02:27.376Z,0.60
2022-09-05T11:04:49.538Z,0.75
2022-09-05T11:07:29.459Z,0.63
2022-09-05T11:10:02.013Z,0.30
2022-09-05T11:12:39.305Z,0.75
2022-09-05T11:15:10.829Z,0.35
2022-09-05T11:17:37.111Z,0.32
2022-09-05T11:20:35.578Z,0.50
2022-09-05T11:23:10.386Z,0.20
2022-09-05T11:25:40.362Z,0.47
2022-09-05T11:28:16.497Z,0.28
2022-09-05T11:30:46.788Z,1.10
2022-09-05T11:37:29.379Z,0.43
2022-09-05T11:39:59.251Z,0.63
2022-09-05T11:41:50.990Z,0.30
2022-09-05T11:44:25.858Z,0.20
2022-09-05T11:46:52.992Z,0.38
2022-09-05T11:49:42.286Z,0.10
2022-09-05T11:52:27.126Z,0.20
2022-09-05T11:55:20.606Z,0.17
2022-09-05T11:57:56.886Z,0.17
2022-09-05T12:00:43.743Z,0.20
2022-09-05T12:03:57.343Z,0.00
2022-09-05T12:06:20.231Z,0.82
2022-09-05T12:08:49.688Z,0.17
2022-09-05T12:11:38.014Z,0.10
2022-09-05T12:14:13.954Z,0.35
2022-09-05T12:17:17.066Z,0.20
2022-09-05T12:20:04.027Z,0.05
2022-09-05T12:22:33.705Z,0.10
2022-09-05T12:25:35.861Z,0.15
2022-09-05T12:28:37.508Z,0.32
2022-09-05T12:32:07.296Z,0.28
2022-09-05T12:36:09.889Z,0.10
2022-09-05T12:40:46.160Z,0.03
2022-09-05T12:41:36.422Z,0.03
2022-09-05T12:42:56.250Z,0.20
2022-09-05T12:45:37.398Z,0.28
2022-09-05T12:48:10.300Z,0.82
2022-09-05T12:50:45.815Z,0.20
2022-09-05T12:53:19.163Z,0.30
2022-09-05T12:56:32.260Z,0.30
2022-09-05T13:02:57.295Z,0.30
2022-09-05T13:03:10.945Z,0.47
2022-09-05T13:04:32.358Z,0.30
2022-09-05T13:07:01.866Z,1.17
2022-09-05T13:10:24.177Z,1.80
2022-09-05T13:14:56.212Z,0.30
2022-09-05T13:15:23.682Z,20.77
2022-09-05T13:17:50.518Z,6.28
2022-09-05T13:20:36.820Z,0.38
2022-09-05T13:23:11.649Z,0.30
2022-09-05T13:25:40.162Z,1.23
2022-09-05T13:28:09.308Z,0.43
2022-09-05T13:35:36.684Z,0.50
2022-09-05T13:38:08.309Z,0.30
2022-09-05T13:38:08.370Z,0.35
2022-09-05T13:39:14.174Z,0.38
2022-09-05T13:41:45.074Z,0.10
2022-09-05T13:44:26.317Z,0.28
2022-09-05T13:47:28.749Z,0.10
2022-09-05T13:50:17.363Z,0.28
2022-09-05T13:52:46.016Z,0.30
2022-09-05T13:55:21.719Z,0.10
2022-09-05T13:58:07.256Z,0.00
2022-09-05T14:00:38.551Z,0.05
2022-09-05T14:05:51.105Z,0.20
2022-09-05T14:08:36.385Z,0.20
2022-09-05T14:11:29.222Z,0.10
2022-09-05T14:14:11.052Z,0.68
2022-09-05T14:16:41.861Z,0.30
2022-09-05T14:19:40.755Z,0.10
2022-09-05T14:22:10.823Z,0.20
2022-09-05T14:24:56.125Z,0.10
2022-09-05T14:27:32.319Z,0.60
2022-09-05T14:30:12.775Z,0.15
2022-09-05T14:37:40.124Z,0.10
2022-09-05T14:37:43.961Z,0.20
2022-09-05T14:38:33.467Z,0.10
2022-09-05T14:41:18.853Z,0.17
2022-09-05T14:43:45.134Z,0.68
2022-09-05T14:46:30.373Z,0.35
2022-09-05T14:49:08.030Z,0.20
2022-09-05T14:51:34.301Z,0.10
2022-09-05T14:54:02.714Z,0.20
2022-09-05T14:58:11.465Z,0.20
2022-09-05T15:02:49.862Z,0.10
2022-09-05T15:02:57.272Z,0.20
2022-09-05T15:05:34.911Z,1.98
2022-09-05T15:08:02.666Z,0.10
2022-09-05T15:12:15.155Z,0.10
2022-09-05T15:13:29.023Z,0.10
2022-09-05T15:16:02.577Z,0.30
2022-09-05T15:18:31.143Z,0.00
2022-09-05T15:21:17.057Z,0.00
2022-09-05T15:24:01.108Z,0.43
2022-09-05T15:26:31.013Z,0.30
2022-09-05T15:29:13.999Z,0.00
2022-09-05T15:31:41.748Z,0.10
2022-09-05T15:34:20.104Z,0.10
2022-09-05T15:36:46.427Z,0.20
2022-09-05T15:39:42.017Z,0.20
2022-09-05T15:42:18.493Z,0.15
2022-09-05T15:45:09.194Z,0.63
2022-09-05T15:47:33.984Z,0.15
2022-09-05T15:50:04.806Z,0.45
2022-09-05T15:52:38.799Z,0.30
2022-09-05T15:55:15.701Z,0.25
2022-09-05T15:57:45.983Z,0.28
2022-09-05T16:00:13.527Z,0.40
2022-09-05T16:02:43.527Z,0.40
2022-09-05T16:10:31.824Z,0.10
2022-09-05T16:10:35.965Z,0.28
2022-09-05T16:11:15.596Z,0.20
2022-09-05T16:13:53.219Z,0.10
2022-09-05T16:21:34.295Z,0.10
2022-09-05T16:23:24.934Z,0.08
2022-09-05T16:23:32.672Z,0.63
2022-09-05T16:24:58.966Z,0.10
2022-09-05T16:27:46.631Z,0.10
2022-09-05T16:30:20.278Z,0.30
2022-09-05T16:32:51.511Z,0.35
2022-09-05T16:35:26.293Z,0.70
2022-09-05T16:37:55.213Z,0.28
2022-09-05T16:40:27.254Z,0.30
2022-09-05T16:43:11.736Z,0.28
2022-09-05T16:45:47.015Z,0.30
2022-09-05T16:48:16.113Z,0.22
2022-09-05T16:50:49.261Z,0.40
2022-09-05T16:53:35.570Z,0.30
2022-09-05T16:56:09.634Z,0.63
2022-09-05T16:58:40.807Z,0.10
2022-09-05T17:01:08.092Z,0.25
2022-09-05T17:03:47.358Z,0.30
2022-09-05T17:08:40.111Z,1.75
2022-09-05T17:11:13.771Z,0.60
2022-09-05T17:13:56.511Z,0.10
2022-09-05T17:16:31.255Z,0.45
2022-09-05T17:18:59.842Z,0.43
2022-09-05T17:24:45.170Z,0.70
2022-09-05T17:29:24.590Z,0.73
2022-09-05T17:29:32.181Z,0.60
2022-09-05T17:31:26.634Z,1.45
2022-09-05T17:32:51.830Z,0.93
2022-09-05T17:35:42.585Z,1.20
2022-09-05T17:38:24.819Z,0.70
2022-09-05T17:40:59.380Z,1.15
2022-09-05T17:43:38.563Z,1.48
2022-09-05T17:46:22.203Z,0.93
2022-09-05T17:48:57.269Z,1.17
2022-09-05T17:51:42.017Z,1.02
2022-09-05T17:54:28.485Z,1.73
2022-09-05T17:56:54.887Z,1.40
2022-09-05T17:59:24.876Z,1.08
2022-09-05T18:02:03.299Z,0.95
2022-09-05T18:04:48.022Z,1.45
2022-09-05T18:07:26.624Z,1.27
2022-09-05T18:10:01.489Z,0.63
2022-09-05T18:15:31.725Z,0.90
2022-09-05T18:17:58.940Z,1.38
2022-09-05T18:20:34.153Z,1.52
2022-09-05T18:23:18.149Z,1.10
2022-09-05T18:25:58.050Z,1.45
2022-09-05T18:28:45.322Z,0.90
2022-09-05T18:31:30.430Z,1.00
2022-09-05T18:34:14.281Z,1.30
2022-09-05T18:36:40.725Z,1.55
2022-09-05T18:39:36.982Z,1.10
2022-09-05T18:42:25.552Z,1.48
2022-09-05T18:44:59.460Z,0.95
2022-09-05T18:47:33.610Z,1.92
2022-09-05T18:50:27.462Z,1.52
2022-09-05T18:52:49.154Z,1.90
2022-09-05T18:56:11.054Z,1.35
2022-09-05T18:58:13.586Z,2.25
2022-09-05T19:00:44.705Z,2.88
2022-09-05T19:03:16.926Z,1.63
2022-09-05T19:06:00.558Z,3.40
2022-09-05T19:08:47.158Z,1.92
2022-09-05T19:11:28.245Z,2.00
2022-09-05T19:14:25.378Z,2.67
2022-09-05T19:16:47.807Z,1.35
2022-09-05T19:19:19.318Z,1.75
2022-09-05T19:22:33.105Z,2.53
2022-09-05T19:24:45.766Z,1.92
2022-09-05T19:29:51.597Z,1.88
2022-09-05T19:36:47.152Z,2.50
2022-09-05T19:36:51.023Z,2.38
2022-09-05T19:37:14.268Z,1.92
2022-09-05T19:38:19.850Z,1.80
2022-09-05T19:47:27.341Z,2.40
2022-09-05T19:47:36.578Z,2.00
2022-09-05T19:47:48.432Z,1.80
2022-09-05T19:49:13.353Z,1.70
2022-09-05T19:51:43.419Z,2.28
2022-09-05T19:54:28.455Z,2.70
2022-09-05T19:56:59.725Z,1.90
2022-09-05T19:59:33.883Z,2.00
2022-09-05T20:02:01.927Z,2.60
2022-09-05T20:04:31.223Z,2.45
2022-09-05T20:06:57.975Z,2.13
2022-09-05T20:09:25.470Z,2.42
2022-09-05T20:11:59.780Z,2.08
2022-09-05T20:14:30.923Z,2.65
2022-09-05T20:16:58.866Z,2.38
2022-09-05T20:19:28.885Z,2.40
2022-09-05T20:21:57.160Z,3.20
2022-09-05T20:24:24.131Z,2.10
2022-09-05T20:26:50.478Z,2.95
2022-09-05T20:29:43.514Z,2.17
2022-09-05T20:32:15.213Z,2.70
2022-09-05T20:36:29.283Z,3.08
2022-09-05T20:43:23.027Z,3.45
2022-09-05T20:43:23.238Z,4.45
2022-09-05T20:43:31.860Z,3.65
2022-09-05T20:47:14.363Z,3.35
2022-09-05T20:54:12.896Z,3.25
2022-09-05T20:54:21.961Z,3.33
2022-09-05T20:54:36.086Z,3.28
2022-09-05T20:57:11.586Z,3.15
2022-09-05T20:59:39.423Z,2.88
2022-09-05T21:02:07.507Z,4.00
2022-09-05T21:04:38.667Z,3.35
2022-09-05T21:07:08.569Z,3.83
2022-09-05T21:09:35.148Z,3.50
2022-09-05T21:12:08.913Z,3.95
2022-09-05T21:14:41.256Z,6.95
2022-09-05T21:17:15.790Z,3.38
2022-09-05T21:19:51.583Z,3.58
2022-09-05T21:22:23.010Z,3.92
2022-09-05T21:25:07.543Z,3.78
2022-09-05T21:27:33.990Z,3.33
2022-09-05T21:30:18.806Z,3.88
2022-09-05T21:32:45.824Z,3.40
2022-09-05T21:35:33.645Z,4.00
2022-09-05T21:37:58.613Z,3.22
2022-09-05T21:40:24.969Z,3.67
2022-09-05T21:47:33.318Z,3.67
2022-09-05T21:47:47.667Z,3.67
2022-09-05T21:48:24.408Z,3.60
2022-09-05T21:50:54.995Z,3.70
2022-09-05T21:56:13.695Z,3.53
2022-09-05T21:59:26.557Z,3.88
2022-09-05T21:59:26.709Z,3.45
2022-09-05T22:01:51.281Z,4.05
2022-09-05T22:04:18.937Z,2.95
2022-09-05T22:06:48.203Z,4.53
2022-09-05T22:09:17.293Z,3.47
2022-09-05T22:11:43.606Z,3.47
2022-09-05T22:14:09.986Z,3.38
2022-09-05T22:16:44.778Z,3.20
2022-09-05T22:19:11.965Z,3.85
2022-09-05T22:21:38.683Z,3.65
2022-09-05T22:24:06.663Z,3.88
2022-09-05T22:26:37.762Z,3.33
2022-09-05T22:29:06.678Z,5.03
2022-09-05T22:31:32.987Z,3.75
2022-09-05T22:33:59.339Z,3.17
2022-09-05T22:36:26.259Z,3.95
2022-09-05T22:38:53.213Z,3.95
2022-09-05T22:41:29.964Z,3.25
2022-09-05T22:43:56.874Z,3.95
2022-09-05T22:46:23.312Z,3.65
2022-09-05T22:48:49.664Z,4.45
2022-09-05T22:51:18.902Z,3.63
2022-09-05T22:53:45.230Z,3.13
2022-09-05T22:56:11.684Z,4.18
2022-09-05T22:58:39.241Z,4.18
2022-09-05T23:01:05.898Z,4.18
2022-09-05T23:03:32.418Z,4.32
2022-09-05T23:06:05.254Z,4.70
2022-09-05T23:08:31.703Z,4.97
2022-09-05T23:10:58.066Z,4.30
2022-09-05T23:13:24.699Z,4.35
2022-09-05T23:15:51.072Z,4.25
2022-09-05T23:18:17.576Z,4.50
2022-09-05T23:20:43.863Z,4.13
2022-09-05T23:23:10.202Z,5.28
2022-09-05T23:25:37.189Z,5.00
2022-09-05T23:28:07.264Z,4.50
2022-09-05T23:30:34.047Z,4.88
2022-09-05T23:33:00.365Z,4.38
2022-09-05T23:35:26.670Z,5.05
2022-09-05T23:37:53.125Z,4.38
2022-09-05T23:40:21.814Z,5.07
2022-09-05T23:42:55.591Z,5.22
2022-09-05T23:45:22.361Z,5.15
2022-09-05T23:47:49.042Z,5.35
2022-09-05T23:50:15.513Z,5.18
2022-09-05T23:52:42.707Z,5.32
2022-09-05T23:55:09.794Z,5.10
2022-09-05T23:57:36.901Z,5.22
